sensor_id;sensor_type;location;lat;lon;timestamp;temperature;humidity
32506;DHT22;18955;51.224;8.482;2023-02-26T00:02:24;5.40;77.40
32506;DHT22;18955;51.224;8.482;2023-02-26T00:04:50;5.60;76.50
32506;DHT22;18955;51.224;8.482;2023-02-26T00:07:17;5.40;77.00
32506;DHT22;18955;51.224;8.482;2023-02-26T00:09:43;5.40;77.50
32506;DHT22;18955;51.224;8.482;2023-02-26T00:12:10;5.60;76.60
32506;DHT22;18955;51.224;8.482;2023-02-26T00:14:37;5.50;76.90
32506;DHT22;18955;51.224;8.482;2023-02-26T00:19:48;5.60;76.80
32506;DHT22;18955;51.224;8.482;2023-02-26T00:22:15;5.60;76.30
32506;DHT22;18955;51.224;8.482;2023-02-26T00:24:41;5.40;77.30
32506;DHT22;18955;51.224;8.482;2023-02-26T00:27:09;5.60;77.00
32506;DHT22;18955;51.224;8.482;2023-02-26T00:29:36;5.70;76.00
32506;DHT22;18955;51.224;8.482;2023-02-26T00:32:03;5.50;77.30
32506;DHT22;18955;51.224;8.482;2023-02-26T00:34:29;5.40;77.20
32506;DHT22;18955;51.224;8.482;2023-02-26T00:40:18;5.60;76.20
32506;DHT22;18955;51.224;8.482;2023-02-26T00:42:46;5.40;77.20
32506;DHT22;18955;51.224;8.482;2023-02-26T00:45:13;5.70;76.40
32506;DHT22;18955;51.224;8.482;2023-02-26T00:50:35;5.40;76.80
32506;DHT22;18955;51.224;8.482;2023-02-26T00:53:45;5.60;76.50
32506;DHT22;18955;51.224;8.482;2023-02-26T00:56:13;5.70;76.40
32506;DHT22;18955;51.224;8.482;2023-02-26T00:58:39;5.40;77.10
32506;DHT22;18955;51.224;8.482;2023-02-26T01:01:05;5.60;76.90
32506;DHT22;18955;51.224;8.482;2023-02-26T01:03:32;5.70;76.00
32506;DHT22;18955;51.224;8.482;2023-02-26T01:05:58;5.50;76.50
32506;DHT22;18955;51.224;8.482;2023-02-26T01:08:33;5.40;77.10
32506;DHT22;18955;51.224;8.482;2023-02-26T01:11:03;5.70;76.00
32506;DHT22;18955;51.224;8.482;2023-02-26T01:13:29;5.60;76.50
32506;DHT22;18955;51.224;8.482;2023-02-26T01:16:04;5.40;77.00
32506;DHT22;18955;51.224;8.482;2023-02-26T01:21:48;5.60;76.30
32506;DHT22;18955;51.224;8.482;2023-02-26T01:24:17;5.40;77.00
32506;DHT22;18955;51.224;8.482;2023-02-26T01:26:44;5.60;76.30
32506;DHT22;18955;51.224;8.482;2023-02-26T01:29:12;5.70;76.00
32506;DHT22;18955;51.224;8.482;2023-02-26T01:35:10;5.50;76.90
32506;DHT22;18955;51.224;8.482;2023-02-26T01:38:02;5.60;76.10
32506;DHT22;18955;51.224;8.482;2023-02-26T01:40:45;5.40;76.60
32506;DHT22;18955;51.224;8.482;2023-02-26T01:48:51;5.40;76.70
32506;DHT22;18955;51.224;8.482;2023-02-26T01:54:02;5.70;75.80
32506;DHT22;18955;51.224;8.482;2023-02-26T01:56:29;5.50;76.40
32506;DHT22;18955;51.224;8.482;2023-02-26T01:58:55;5.50;76.90
32506;DHT22;18955;51.224;8.482;2023-02-26T02:01:22;5.70;75.90
32506;DHT22;18955;51.224;8.482;2023-02-26T02:03:48;5.60;76.20
32506;DHT22;18955;51.224;8.482;2023-02-26T02:06:24;5.40;76.60
32506;DHT22;18955;51.224;8.482;2023-02-26T02:08:51;5.70;76.00
32506;DHT22;18955;51.224;8.482;2023-02-26T02:11:18;5.70;75.80
32506;DHT22;18955;51.224;8.482;2023-02-26T02:17:01;5.60;76.60
32506;DHT22;18955;51.224;8.482;2023-02-26T02:31:10;5.50;76.40
32506;DHT22;18955;51.224;8.482;2023-02-26T02:36:57;5.70;75.60
32506;DHT22;18955;51.224;8.482;2023-02-26T02:39:32;5.50;76.60
32506;DHT22;18955;51.224;8.482;2023-02-26T02:45:11;5.70;75.90
32506;DHT22;18955;51.224;8.482;2023-02-26T02:47:41;5.50;76.60
32506;DHT22;18955;51.224;8.482;2023-02-26T02:50:15;5.60;76.30
32506;DHT22;18955;51.224;8.482;2023-02-26T02:53:22;5.70;75.70
32506;DHT22;18955;51.224;8.482;2023-02-26T02:55:56;5.50;76.30
32506;DHT22;18955;51.224;8.482;2023-02-26T02:58:30;5.60;76.60
32506;DHT22;18955;51.224;8.482;2023-02-26T03:01:02;5.70;75.40
32506;DHT22;18955;51.224;8.482;2023-02-26T03:03:34;5.60;76.10
32506;DHT22;18955;51.224;8.482;2023-02-26T03:06:02;5.50;76.70
32506;DHT22;18955;51.224;8.482;2023-02-26T03:08:34;5.70;75.70
32506;DHT22;18955;51.224;8.482;2023-02-26T03:11:02;5.70;75.90
32506;DHT22;18955;51.224;8.482;2023-02-26T03:13:28;5.40;76.70
32506;DHT22;18955;51.224;8.482;2023-02-26T03:21:30;5.50;76.60
32506;DHT22;18955;51.224;8.482;2023-02-26T03:29:50;5.50;76.80
32506;DHT22;18955;51.224;8.482;2023-02-26T03:32:30;5.60;76.30
32506;DHT22;18955;51.224;8.482;2023-02-26T03:35:08;5.70;75.60
32506;DHT22;18955;51.224;8.482;2023-02-26T03:37:49;5.50;76.40
32506;DHT22;18955;51.224;8.482;2023-02-26T03:40:27;5.60;76.60
32506;DHT22;18955;51.224;8.482;2023-02-26T03:43:50;5.70;75.60
32506;DHT22;18955;51.224;8.482;2023-02-26T03:45:53;5.50;76.20
32506;DHT22;18955;51.224;8.482;2023-02-26T03:48:24;5.50;76.50
32506;DHT22;18955;51.224;8.482;2023-02-26T03:50:55;5.70;75.20
32506;DHT22;18955;51.224;8.482;2023-02-26T03:53:53;5.60;75.80
32506;DHT22;18955;51.224;8.482;2023-02-26T03:56:39;5.50;76.40
32506;DHT22;18955;51.224;8.482;2023-02-26T03:59:10;5.70;75.40
32506;DHT22;18955;51.224;8.482;2023-02-26T04:01:51;5.60;75.80
32506;DHT22;18955;51.224;8.482;2023-02-26T04:06:45;5.80;75.50
32506;DHT22;18955;51.224;8.482;2023-02-26T04:09:12;5.60;75.90
32506;DHT22;18955;51.224;8.482;2023-02-26T04:11:38;5.40;76.50
32506;DHT22;18955;51.224;8.482;2023-02-26T04:14:05;5.70;76.00
32506;DHT22;18955;51.224;8.482;2023-02-26T04:16:37;5.70;75.50
32506;DHT22;18955;51.224;8.482;2023-02-26T04:19:03;5.50;76.00
32506;DHT22;18955;51.224;8.482;2023-02-26T04:21:29;5.50;76.40
32506;DHT22;18955;51.224;8.482;2023-02-26T04:23:56;5.80;75.20
32506;DHT22;18955;51.224;8.482;2023-02-26T04:26:22;5.60;75.50
32506;DHT22;18955;51.224;8.482;2023-02-26T04:28:48;5.40;76.10
32506;DHT22;18955;51.224;8.482;2023-02-26T04:31:15;5.70;75.60
32506;DHT22;18955;51.224;8.482;2023-02-26T04:33:41;5.70;75.80
32506;DHT22;18955;51.224;8.482;2023-02-26T04:36:08;5.50;76.20
32506;DHT22;18955;51.224;8.482;2023-02-26T04:38:35;5.60;76.30
32506;DHT22;18955;51.224;8.482;2023-02-26T04:41:02;5.70;75.50
32506;DHT22;18955;51.224;8.482;2023-02-26T04:43:28;5.50;76.00
32506;DHT22;18955;51.224;8.482;2023-02-26T04:46:10;5.40;76.30
32506;DHT22;18955;51.224;8.482;2023-02-26T04:48:37;5.70;75.20
32506;DHT22;18955;51.224;8.482;2023-02-26T04:51:03;5.60;75.60
32506;DHT22;18955;51.224;8.482;2023-02-26T04:53:29;5.40;76.40
32506;DHT22;18955;51.224;8.482;2023-02-26T04:55:56;5.70;75.70
32506;DHT22;18955;51.224;8.482;2023-02-26T04:58:22;5.70;75.40
32506;DHT22;18955;51.224;8.482;2023-02-26T05:00:49;5.50;75.90
32506;DHT22;18955;51.224;8.482;2023-02-26T05:03:16;5.50;76.20
32506;DHT22;18955;51.224;8.482;2023-02-26T05:05:43;5.70;75.20
32506;DHT22;18955;51.224;8.482;2023-02-26T05:08:09;5.50;76.00
32506;DHT22;18955;51.224;8.482;2023-02-26T05:10:35;5.40;76.20
32506;DHT22;18955;51.224;8.482;2023-02-26T05:13:03;5.70;76.20
32506;DHT22;18955;51.224;8.482;2023-02-26T05:15:30;5.70;75.50
32506;DHT22;18955;51.224;8.482;2023-02-26T05:17:56;5.40;76.00
32506;DHT22;18955;51.224;8.482;2023-02-26T05:20:23;5.50;76.10
32506;DHT22;18955;51.224;8.482;2023-02-26T05:22:49;5.70;75.00
32506;DHT22;18955;51.224;8.482;2023-02-26T05:25:16;5.50;75.50
32506;DHT22;18955;51.224;8.482;2023-02-26T05:27:42;5.40;76.00
32506;DHT22;18955;51.224;8.482;2023-02-26T05:30:12;5.70;75.30
32506;DHT22;18955;51.224;8.482;2023-02-26T05:32:38;5.70;75.10
32506;DHT22;18955;51.224;8.482;2023-02-26T05:35:05;5.40;76.00
32506;DHT22;18955;51.224;8.482;2023-02-26T05:37:31;5.60;75.90
32506;DHT22;18955;51.224;8.482;2023-02-26T05:39:57;5.70;75.00
32506;DHT22;18955;51.224;8.482;2023-02-26T05:42:24;5.50;75.40
32506;DHT22;18955;51.224;8.482;2023-02-26T05:44:50;5.40;76.10
32506;DHT22;18955;51.224;8.482;2023-02-26T05:47:16;5.80;75.10
32506;DHT22;18955;51.224;8.482;2023-02-26T05:49:43;5.70;75.20
32506;DHT22;18955;51.224;8.482;2023-02-26T05:52:09;5.40;76.00
32506;DHT22;18955;51.224;8.482;2023-02-26T05:54:35;5.70;75.60
32506;DHT22;18955;51.224;8.482;2023-02-26T05:57:01;5.70;75.20
32506;DHT22;18955;51.224;8.482;2023-02-26T05:59:27;5.50;75.60
32506;DHT22;18955;51.224;8.482;2023-02-26T06:01:53;5.50;76.10
32506;DHT22;18955;51.224;8.482;2023-02-26T06:04:20;5.70;75.10
32506;DHT22;18955;51.224;8.482;2023-02-26T06:06:46;5.60;75.60
32506;DHT22;18955;51.224;8.482;2023-02-26T06:09:12;5.40;76.10
32506;DHT22;18955;51.224;8.482;2023-02-26T06:11:38;5.70;75.30
32506;DHT22;18955;51.224;8.482;2023-02-26T06:14:05;5.60;75.30
32506;DHT22;18955;51.224;8.482;2023-02-26T06:16:31;5.40;75.80
32506;DHT22;18955;51.224;8.482;2023-02-26T06:18:57;5.60;75.70
32506;DHT22;18955;51.224;8.482;2023-02-26T06:21:24;5.70;75.00
32506;DHT22;18955;51.224;8.482;2023-02-26T06:23:50;5.60;75.60
32506;DHT22;18955;51.224;8.482;2023-02-26T06:26:16;5.40;75.90
32506;DHT22;18955;51.224;8.482;2023-02-26T06:28:42;5.70;75.00
32506;DHT22;18955;51.224;8.482;2023-02-26T06:31:08;5.60;75.10
32506;DHT22;18955;51.224;8.482;2023-02-26T06:33:34;5.40;75.90
32506;DHT22;18955;51.224;8.482;2023-02-26T06:36:01;5.70;75.40
32506;DHT22;18955;51.224;8.482;2023-02-26T06:38:27;5.70;75.00
32506;DHT22;18955;51.224;8.482;2023-02-26T06:40:54;5.50;75.60
32506;DHT22;18955;51.224;8.482;2023-02-26T06:43:20;5.50;75.90
32506;DHT22;18955;51.224;8.482;2023-02-26T06:45:46;5.80;74.70
32506;DHT22;18955;51.224;8.482;2023-02-26T06:48:13;5.60;75.10
32506;DHT22;18955;51.224;8.482;2023-02-26T06:50:39;5.40;75.50
32506;DHT22;18955;51.224;8.482;2023-02-26T06:53:05;5.70;75.10
32506;DHT22;18955;51.224;8.482;2023-02-26T06:55:32;5.60;75.00
32506;DHT22;18955;51.224;8.482;2023-02-26T06:57:58;5.40;75.90
32506;DHT22;18955;51.224;8.482;2023-02-26T07:00:24;5.50;75.70
32506;DHT22;18955;51.224;8.482;2023-02-26T07:02:51;5.70;75.00
32506;DHT22;18955;51.224;8.482;2023-02-26T07:05:18;5.50;75.40
32506;DHT22;18955;51.224;8.482;2023-02-26T07:07:44;5.50;75.80
32506;DHT22;18955;51.224;8.482;2023-02-26T07:10:11;5.70;74.60
32506;DHT22;18955;51.224;8.482;2023-02-26T07:12:37;5.60;74.90
32506;DHT22;18955;51.224;8.482;2023-02-26T07:15:05;5.40;75.50
32506;DHT22;18955;51.224;8.482;2023-02-26T07:17:31;5.70;74.90
32506;DHT22;18955;51.224;8.482;2023-02-26T07:19:57;5.70;74.60
32506;DHT22;18955;51.224;8.482;2023-02-26T07:22:24;5.40;75.50
32506;DHT22;18955;51.224;8.482;2023-02-26T07:24:50;5.60;75.60
32506;DHT22;18955;51.224;8.482;2023-02-26T07:27:16;5.70;74.60
32506;DHT22;18955;51.224;8.482;2023-02-26T07:29:42;5.60;75.30
32506;DHT22;18955;51.224;8.482;2023-02-26T07:32:09;5.50;75.70
32506;DHT22;18955;51.224;8.482;2023-02-26T07:34:35;5.70;74.90
32506;DHT22;18955;51.224;8.482;2023-02-26T07:37:01;5.70;75.00
32506;DHT22;18955;51.224;8.482;2023-02-26T07:39:27;5.40;75.70
32506;DHT22;18955;51.224;8.482;2023-02-26T07:41:53;5.70;75.20
32506;DHT22;18955;51.224;8.482;2023-02-26T07:44:21;5.70;74.80
32506;DHT22;18955;51.224;8.482;2023-02-26T07:46:47;5.50;75.40
32506;DHT22;18955;51.224;8.482;2023-02-26T07:49:14;5.50;75.80
32506;DHT22;18955;51.224;8.482;2023-02-26T07:51:41;5.80;74.60
32506;DHT22;18955;51.224;8.482;2023-02-26T07:54:14;5.60;75.00
32506;DHT22;18955;51.224;8.482;2023-02-26T07:56:40;5.50;75.50
32506;DHT22;18955;51.224;8.482;2023-02-26T07:59:08;5.80;74.90
32506;DHT22;18955;51.224;8.482;2023-02-26T08:01:35;5.70;75.00
32506;DHT22;18955;51.224;8.482;2023-02-26T08:04:01;5.50;75.50
32506;DHT22;18955;51.224;8.482;2023-02-26T08:06:28;5.70;75.40
32506;DHT22;18955;51.224;8.482;2023-02-26T08:08:54;5.70;74.60
32506;DHT22;18955;51.224;8.482;2023-02-26T08:11:21;5.50;75.30
32506;DHT22;18955;51.224;8.482;2023-02-26T08:13:47;5.60;75.60
32506;DHT22;18955;51.224;8.482;2023-02-26T08:16:13;5.80;74.60
32506;DHT22;18955;51.224;8.482;2023-02-26T08:18:39;5.70;74.80
32506;DHT22;18955;51.224;8.482;2023-02-26T08:21:06;5.50;75.50
32506;DHT22;18955;51.224;8.482;2023-02-26T08:23:32;5.80;75.00
32506;DHT22;18955;51.224;8.482;2023-02-26T08:26:03;5.70;74.90
32506;DHT22;18955;51.224;8.482;2023-02-26T08:28:30;5.50;75.40
32506;DHT22;18955;51.224;8.482;2023-02-26T08:30:56;5.70;75.40
32506;DHT22;18955;51.224;8.482;2023-02-26T08:33:23;5.80;74.70
32506;DHT22;18955;51.224;8.482;2023-02-26T08:35:50;5.60;75.30
32506;DHT22;18955;51.224;8.482;2023-02-26T08:38:19;5.50;75.60
32506;DHT22;18955;51.224;8.482;2023-02-26T08:40:48;5.80;74.70
32506;DHT22;18955;51.224;8.482;2023-02-26T08:43:14;5.70;75.00
32506;DHT22;18955;51.224;8.482;2023-02-26T08:45:40;5.50;75.50
32506;DHT22;18955;51.224;8.482;2023-02-26T08:48:06;5.80;75.20
32506;DHT22;18955;51.224;8.482;2023-02-26T08:50:33;5.80;74.90
32506;DHT22;18955;51.224;8.482;2023-02-26T08:52:59;5.60;75.50
32506;DHT22;18955;51.224;8.482;2023-02-26T08:55:25;5.70;75.60
32506;DHT22;18955;51.224;8.482;2023-02-26T08:57:51;5.80;74.60
32506;DHT22;18955;51.224;8.482;2023-02-26T09:00:18;5.60;75.10
32506;DHT22;18955;51.224;8.482;2023-02-26T09:02:45;5.60;75.60
32506;DHT22;18955;51.224;8.482;2023-02-26T09:05:11;5.80;74.90
32506;DHT22;18955;51.224;8.482;2023-02-26T09:07:38;5.70;74.90
32506;DHT22;18955;51.224;8.482;2023-02-26T09:10:05;5.60;75.60
32506;DHT22;18955;51.224;8.482;2023-02-26T09:12:32;5.80;74.80
32506;DHT22;18955;51.224;8.482;2023-02-26T09:15:01;5.80;74.50
32506;DHT22;18955;51.224;8.482;2023-02-26T09:17:29;5.70;75.30
32506;DHT22;18955;51.224;8.482;2023-02-26T09:19:56;5.70;75.60
32506;DHT22;18955;51.224;8.482;2023-02-26T09:22:22;5.90;74.30
32506;DHT22;18955;51.224;8.482;2023-02-26T09:24:49;5.70;75.00
32506;DHT22;18955;51.224;8.482;2023-02-26T09:27:15;5.60;75.40
32506;DHT22;18955;51.224;8.482;2023-02-26T09:29:41;5.90;74.80
32506;DHT22;18955;51.224;8.482;2023-02-26T09:32:08;5.80;74.90
32506;DHT22;18955;51.224;8.482;2023-02-26T09:34:35;5.60;75.50
32506;DHT22;18955;51.224;8.482;2023-02-26T09:37:03;5.80;75.10
32506;DHT22;18955;51.224;8.482;2023-02-26T09:39:29;5.90;74.50
32506;DHT22;18955;51.224;8.482;2023-02-26T09:41:59;5.70;75.30
32506;DHT22;18955;51.224;8.482;2023-02-26T09:44:31;5.70;75.50
32506;DHT22;18955;51.224;8.482;2023-02-26T09:47:24;5.90;74.30
32506;DHT22;18955;51.224;8.482;2023-02-26T09:55:18;6.00;74.40
32506;DHT22;18955;51.224;8.482;2023-02-26T09:57:48;5.90;74.80
32506;DHT22;18955;51.224;8.482;2023-02-26T10:00:24;5.70;75.20
32506;DHT22;18955;51.224;8.482;2023-02-26T10:08:42;5.80;75.50
32506;DHT22;18955;51.224;8.482;2023-02-26T10:11:33;6.00;74.60
32506;DHT22;18955;51.224;8.482;2023-02-26T10:14:03;6.00;74.60
32506;DHT22;18955;51.224;8.482;2023-02-26T10:16:35;5.80;75.10
32506;DHT22;18955;51.224;8.482;2023-02-26T10:19:10;6.10;74.60
32506;DHT22;18955;51.224;8.482;2023-02-26T10:21:43;6.00;74.40
32506;DHT22;18955;51.224;8.482;2023-02-26T10:26:49;6.00;75.10
32506;DHT22;18955;51.224;8.482;2023-02-26T10:29:37;6.10;74.10
32506;DHT22;18955;51.224;8.482;2023-02-26T10:34:50;5.90;75.30
32506;DHT22;18955;51.224;8.482;2023-02-26T10:46:04;6.20;74.70
32506;DHT22;18955;51.224;8.482;2023-02-26T10:51:11;5.90;75.30
32506;DHT22;18955;51.224;8.482;2023-02-26T10:53:41;6.20;74.10
32506;DHT22;18955;51.224;8.482;2023-02-26T10:56:24;6.10;75.00
32506;DHT22;18955;51.224;8.482;2023-02-26T10:58:51;5.90;75.30
32506;DHT22;18955;51.224;8.482;2023-02-26T11:01:22;6.20;74.60
32506;DHT22;18955;51.224;8.482;2023-02-26T11:03:54;6.20;74.70
32506;DHT22;18955;51.224;8.482;2023-02-26T11:06:30;5.90;75.30
32506;DHT22;18955;51.224;8.482;2023-02-26T11:08:59;6.10;75.00
32506;DHT22;18955;51.224;8.482;2023-02-26T11:14:11;6.10;75.30
32506;DHT22;18955;51.224;8.482;2023-02-26T11:16:47;6.10;75.40
32506;DHT22;18955;51.224;8.482;2023-02-26T11:19:15;6.30;74.00
32506;DHT22;18955;51.224;8.482;2023-02-26T11:21:44;6.20;74.90
32506;DHT22;18955;51.224;8.482;2023-02-26T11:27:03;6.40;74.60
32506;DHT22;18955;51.224;8.482;2023-02-26T11:29:46;6.30;74.90
32506;DHT22;18955;51.224;8.482;2023-02-26T11:32:19;6.10;75.50
32506;DHT22;18955;51.224;8.482;2023-02-26T11:34:48;6.40;74.50
32506;DHT22;18955;51.224;8.482;2023-02-26T11:37:19;6.40;74.50
32506;DHT22;18955;51.224;8.482;2023-02-26T11:40:05;6.10;75.50
32506;DHT22;18955;51.224;8.482;2023-02-26T11:42:40;6.40;75.30
32506;DHT22;18955;51.224;8.482;2023-02-26T11:45:13;6.40;74.40
32506;DHT22;18955;51.224;8.482;2023-02-26T11:47:42;6.20;75.20
32506;DHT22;18955;51.224;8.482;2023-02-26T11:50:20;6.20;75.60
32506;DHT22;18955;51.224;8.482;2023-02-26T11:52:55;6.50;74.30
32506;DHT22;18955;51.224;8.482;2023-02-26T11:55:32;6.30;75.10
32506;DHT22;18955;51.224;8.482;2023-02-26T11:57:58;6.20;75.30
32506;DHT22;18955;51.224;8.482;2023-02-26T12:00:30;6.50;74.90
32506;DHT22;18955;51.224;8.482;2023-02-26T12:03:02;6.40;74.60
32506;DHT22;18955;51.224;8.482;2023-02-26T12:05:30;6.30;75.70
32506;DHT22;18955;51.224;8.482;2023-02-26T12:07:57;6.50;75.10
32506;DHT22;18955;51.224;8.482;2023-02-26T12:10:39;6.60;74.20
32506;DHT22;18955;51.224;8.482;2023-02-26T12:18:48;6.60;74.30
32506;DHT22;18955;51.224;8.482;2023-02-26T12:26:58;6.70;74.60
32506;DHT22;18955;51.224;8.482;2023-02-26T12:35:29;6.80;74.60
32506;DHT22;18955;51.224;8.482;2023-02-26T12:38:23;6.70;74.90
32506;DHT22;18955;51.224;8.482;2023-02-26T12:43:50;6.80;74.90
32506;DHT22;18955;51.224;8.482;2023-02-26T12:46:34;6.70;75.10
32506;DHT22;18955;51.224;8.482;2023-02-26T12:54:38;6.70;75.00
32506;DHT22;18955;51.224;8.482;2023-02-26T13:08:31;6.80;75.70
32506;DHT22;18955;51.224;8.482;2023-02-26T13:14:10;6.80;75.80
32506;DHT22;18955;51.224;8.482;2023-02-26T13:16:50;6.90;75.60
32506;DHT22;18955;51.224;8.482;2023-02-26T13:22:03;6.90;75.50
32506;DHT22;18955;51.224;8.482;2023-02-26T13:24:38;6.80;75.80
32506;DHT22;18955;51.224;8.482;2023-02-26T13:27:08;7.10;74.80
32506;DHT22;18955;51.224;8.482;2023-02-26T13:32:17;6.80;75.80
32506;DHT22;18955;51.224;8.482;2023-02-26T13:35:06;7.10;75.20
32506;DHT22;18955;51.224;8.482;2023-02-26T13:37:40;7.30;75.20
32506;DHT22;18955;51.224;8.482;2023-02-26T13:43:01;7.30;75.30
32506;DHT22;18955;51.224;8.482;2023-02-26T13:51:22;7.30;75.20
32506;DHT22;18955;51.224;8.482;2023-02-26T13:53:53;7.60;74.40
32506;DHT22;18955;51.224;8.482;2023-02-26T13:56:41;7.50;74.50
32506;DHT22;18955;51.224;8.482;2023-02-26T14:06:55;7.50;75.00
32506;DHT22;18955;51.224;8.482;2023-02-26T14:17:17;7.40;75.60
32506;DHT22;18955;51.224;8.482;2023-02-26T14:23:19;7.60;75.10
32506;DHT22;18955;51.224;8.482;2023-02-26T14:25:45;7.40;75.70
32506;DHT22;18955;51.224;8.482;2023-02-26T14:33:29;7.50;75.50
32506;DHT22;18955;51.224;8.482;2023-02-26T14:35:56;7.30;76.40
32506;DHT22;18955;51.224;8.482;2023-02-26T14:38:29;7.40;76.10
32506;DHT22;18955;51.224;8.482;2023-02-26T14:41:04;7.60;75.00
32506;DHT22;18955;51.224;8.482;2023-02-26T14:43:48;7.40;76.10
32506;DHT22;18955;51.224;8.482;2023-02-26T14:46:17;7.30;76.40
32506;DHT22;18955;51.224;8.482;2023-02-26T14:48:43;7.60;75.50
32506;DHT22;18955;51.224;8.482;2023-02-26T14:51:32;7.60;75.50
32506;DHT22;18955;51.224;8.482;2023-02-26T14:54:23;7.40;76.40
32506;DHT22;18955;51.224;8.482;2023-02-26T15:02:31;7.50;76.10
32506;DHT22;18955;51.224;8.482;2023-02-26T15:08:19;7.60;75.90
32506;DHT22;18955;51.224;8.482;2023-02-26T15:16:58;7.50;76.40
32506;DHT22;18955;51.224;8.482;2023-02-26T15:19:19;7.60;75.50
32506;DHT22;18955;51.224;8.482;2023-02-26T15:24:32;7.30;76.00
32506;DHT22;18955;51.224;8.482;2023-02-26T15:27:03;7.60;75.30
32506;DHT22;18955;51.224;8.482;2023-02-26T15:29:35;7.50;76.00
32506;DHT22;18955;51.224;8.482;2023-02-26T15:32:21;7.30;76.90
32506;DHT22;18955;51.224;8.482;2023-02-26T15:37:26;7.60;75.20
32506;DHT22;18955;51.224;8.482;2023-02-26T15:39:53;7.40;76.40
32506;DHT22;18955;51.224;8.482;2023-02-26T15:42:22;7.20;76.90
32506;DHT22;18955;51.224;8.482;2023-02-26T15:44:52;7.50;75.80
32506;DHT22;18955;51.224;8.482;2023-02-26T15:47:20;7.50;75.50
32506;DHT22;18955;51.224;8.482;2023-02-26T15:49:47;7.30;76.20
32506;DHT22;18955;51.224;8.482;2023-02-26T15:52:18;7.20;76.30
32506;DHT22;18955;51.224;8.482;2023-02-26T15:54:57;7.50;75.50
32506;DHT22;18955;51.224;8.482;2023-02-26T15:57:25;7.50;75.40
32506;DHT22;18955;51.224;8.482;2023-02-26T16:00:03;7.30;76.50
32506;DHT22;18955;51.224;8.482;2023-02-26T16:02:40;7.30;76.20
32506;DHT22;18955;51.224;8.482;2023-02-26T16:05:07;7.50;74.70
32506;DHT22;18955;51.224;8.482;2023-02-26T16:07:35;7.40;75.70
32506;DHT22;18955;51.224;8.482;2023-02-26T16:10:14;7.20;76.60
32506;DHT22;18955;51.224;8.482;2023-02-26T16:12:42;7.40;76.00
32506;DHT22;18955;51.224;8.482;2023-02-26T16:15:20;7.50;74.60
32506;DHT22;18955;51.224;8.482;2023-02-26T16:17:51;7.30;75.90
32506;DHT22;18955;51.224;8.482;2023-02-26T16:20:22;7.10;75.90
32506;DHT22;18955;51.224;8.482;2023-02-26T16:22:58;7.40;75.20
32506;DHT22;18955;51.224;8.482;2023-02-26T16:25:35;7.40;75.00
32506;DHT22;18955;51.224;8.482;2023-02-26T16:28:06;7.20;76.00
32506;DHT22;18955;51.224;8.482;2023-02-26T16:30:38;7.10;76.10
32506;DHT22;18955;51.224;8.482;2023-02-26T16:33:16;7.40;74.80
32506;DHT22;18955;51.224;8.482;2023-02-26T16:35:49;7.30;75.30
32506;DHT22;18955;51.224;8.482;2023-02-26T16:38:28;7.20;76.40
32506;DHT22;18955;51.224;8.482;2023-02-26T16:41:08;7.30;76.40
32506;DHT22;18955;51.224;8.482;2023-02-26T16:46:19;7.30;75.50
32506;DHT22;18955;51.224;8.482;2023-02-26T16:48:59;7.10;75.80
32506;DHT22;18955;51.224;8.482;2023-02-26T16:51:29;7.30;75.30
32506;DHT22;18955;51.224;8.482;2023-02-26T16:53:57;7.30;75.20
32506;DHT22;18955;51.224;8.482;2023-02-26T16:56:29;7.10;75.70
32506;DHT22;18955;51.224;8.482;2023-02-26T16:59:13;7.00;76.30
32506;DHT22;18955;51.224;8.482;2023-02-26T17:04:23;7.20;75.00
32506;DHT22;18955;51.224;8.482;2023-02-26T17:06:52;7.00;76.10
32506;DHT22;18955;51.224;8.482;2023-02-26T17:12:12;7.30;74.70
32506;DHT22;18955;51.224;8.482;2023-02-26T17:14:44;7.10;75.10
32506;DHT22;18955;51.224;8.482;2023-02-26T17:17:11;6.90;75.20
32506;DHT22;18955;51.224;8.482;2023-02-26T17:19:38;7.20;74.60
32506;DHT22;18955;51.224;8.482;2023-02-26T17:22:06;7.10;74.70
32506;DHT22;18955;51.224;8.482;2023-02-26T17:24:38;6.90;75.20
32506;DHT22;18955;51.224;8.482;2023-02-26T17:27:06;6.90;75.30
32506;DHT22;18955;51.224;8.482;2023-02-26T17:29:37;7.20;74.10
32506;DHT22;18955;51.224;8.482;2023-02-26T17:32:18;7.10;74.40
32506;DHT22;18955;51.224;8.482;2023-02-26T17:34:45;6.80;75.50
32506;DHT22;18955;51.224;8.482;2023-02-26T17:37:12;7.00;74.70
32506;DHT22;18955;51.224;8.482;2023-02-26T17:39:40;7.10;74.10
32506;DHT22;18955;51.224;8.482;2023-02-26T17:42:14;7.00;74.40
32506;DHT22;18955;51.224;8.482;2023-02-26T17:44:41;6.80;74.80
32506;DHT22;18955;51.224;8.482;2023-02-26T17:47:15;7.10;74.30
32506;DHT22;18955;51.224;8.482;2023-02-26T17:49:42;7.00;74.00
32506;DHT22;18955;51.224;8.482;2023-02-26T17:52:09;6.90;74.60
32506;DHT22;18955;51.224;8.482;2023-02-26T17:54:35;6.80;75.00
32506;DHT22;18955;51.224;8.482;2023-02-26T17:57:01;7.10;73.80
32506;DHT22;18955;51.224;8.482;2023-02-26T17:59:28;7.00;73.90
32506;DHT22;18955;51.224;8.482;2023-02-26T18:01:55;6.80;74.70
32506;DHT22;18955;51.224;8.482;2023-02-26T18:04:23;6.80;74.80
32506;DHT22;18955;51.224;8.482;2023-02-26T18:06:50;7.00;73.60
32506;DHT22;18955;51.224;8.482;2023-02-26T18:09:16;6.90;73.60
32506;DHT22;18955;51.224;8.482;2023-02-26T18:11:42;6.70;74.50
32506;DHT22;18955;51.224;8.482;2023-02-26T18:14:09;6.80;74.40
32506;DHT22;18955;51.224;8.482;2023-02-26T18:16:41;7.00;73.30
32506;DHT22;18955;51.224;8.482;2023-02-26T18:19:07;6.80;73.70
32506;DHT22;18955;51.224;8.482;2023-02-26T18:21:34;6.60;74.40
32506;DHT22;18955;51.224;8.482;2023-02-26T18:24:00;6.90;74.40
32506;DHT22;18955;51.224;8.482;2023-02-26T18:26:30;7.00;73.30
32506;DHT22;18955;51.224;8.482;2023-02-26T18:28:57;6.80;73.70
32506;DHT22;18955;51.224;8.482;2023-02-26T18:31:24;6.60;74.10
32506;DHT22;18955;51.224;8.482;2023-02-26T18:33:58;6.90;73.30
32506;DHT22;18955;51.224;8.482;2023-02-26T18:36:30;6.90;73.20
32506;DHT22;18955;51.224;8.482;2023-02-26T18:39:02;6.70;73.70
32506;DHT22;18955;51.224;8.482;2023-02-26T18:41:29;6.60;74.00
32506;DHT22;18955;51.224;8.482;2023-02-26T18:43:57;6.90;72.70
32506;DHT22;18955;51.224;8.482;2023-02-26T18:46:24;6.90;72.60
32506;DHT22;18955;51.224;8.482;2023-02-26T18:48:50;6.60;73.70
32506;DHT22;18955;51.224;8.482;2023-02-26T18:51:16;6.60;74.00
32506;DHT22;18955;51.224;8.482;2023-02-26T18:53:42;6.80;72.80
32506;DHT22;18955;51.224;8.482;2023-02-26T18:56:09;6.70;73.00
32506;DHT22;18955;51.224;8.482;2023-02-26T18:58:35;6.50;73.80
32506;DHT22;18955;51.224;8.482;2023-02-26T19:01:03;6.70;73.20
32506;DHT22;18955;51.224;8.482;2023-02-26T19:03:30;6.70;72.90
32506;DHT22;18955;51.224;8.482;2023-02-26T19:06:01;6.50;73.10
32506;DHT22;18955;51.224;8.482;2023-02-26T19:08:28;6.40;73.30
32506;DHT22;18955;51.224;8.482;2023-02-26T19:10:56;6.70;72.60
32506;DHT22;18955;51.224;8.482;2023-02-26T19:13:23;6.60;72.40
32506;DHT22;18955;51.224;8.482;2023-02-26T19:15:49;6.40;73.50
32506;DHT22;18955;51.224;8.482;2023-02-26T19:18:16;6.60;73.10
32506;DHT22;18955;51.224;8.482;2023-02-26T19:20:42;6.60;72.40
32506;DHT22;18955;51.224;8.482;2023-02-26T19:23:09;6.50;72.60